Time;durP1;ratioP1;P1;durP2;ratioP2;P2;SDS_P1;SDS_P2;PMS_P1;PMS_P2;Temp;Humidity;BMP_temperature;BMP_pressure;BME280_temperature;BME280_humidity;BME280_pressure;Samples;Min_cycle;Max_cycle;Signal;HPM_P1;HPM_P2
2021/12/16 00:09:12;;;;;;;31.45;16.38;;;;;;;-140.05;100.00;61859.38;5031913;28;20375;-61
2021/12/16 00:36:00;;;;;;;32.30;16.50;;;;;;;-140.05;100.00;61859.38;5042787;28;20302;-60
2021/12/16 00:38:27;;;;;;;32.03;15.20;;;;;;;-140.05;100.00;61859.38;5036938;28;20196;-59
2021/12/16 00:40:55;;;;;;;32.20;15.80;;;;;;;-140.05;100.00;61859.38;5046062;28;20270;-59
2021/12/16 00:43:32;;;;;;;31.23;15.65;;;;;;;-140.05;100.00;61859.38;5049776;28;20647;-59
2021/12/16 00:54:09;;;;;;;32.38;16.38;;;;;;;-140.05;100.00;61859.38;5049939;28;20209;-60
2021/12/16 00:56:47;;;;;;;30.50;15.63;;;;;;;-140.05;100.00;61859.38;5049801;28;20236;-62
2021/12/16 00:59:16;;;;;;;30.83;15.95;;;;;;;-140.05;100.00;61859.38;5050040;28;20193;-57
2021/12/16 01:02:09;;;;;;;32.05;15.82;;;;;;;-140.05;100.00;61859.38;5049821;28;20324;-58
2021/12/16 01:35:56;;;;;;;32.78;17.40;;;;;;;-140.05;100.00;61859.38;5052449;28;21013;-60
2021/12/16 01:57:33;;;;;;;30.02;15.00;;;;;;;-140.05;100.00;61859.38;5065878;28;20621;-63
2021/12/16 02:00:12;;;;;;;29.52;14.73;;;;;;;-140.05;100.00;61859.38;5049073;28;20239;-63
2021/12/16 02:02:51;;;;;;;23.15;11.85;;;;;;;-140.05;100.00;61859.38;5050466;28;20196;-56
2021/12/16 02:10:45;;;;;;;25.38;11.70;;;;;;;-140.05;100.00;61859.38;5038408;28;20235;-60
2021/12/16 02:37:31;;;;;;;27.88;13.98;;;;;;;-140.05;100.00;61859.38;5059652;28;20271;-63
2021/12/16 02:39:58;;;;;;;23.17;13.20;;;;;;;-140.05;100.00;61859.38;5048561;28;20196;-58
2021/12/16 02:42:36;;;;;;;19.92;10.18;;;;;;;-140.05;100.00;61859.38;5047696;28;20295;-56
2021/12/16 02:50:25;;;;;;;28.42;15.05;;;;;;;-140.05;100.00;61859.38;5050073;28;20279;-61
2021/12/16 02:52:53;;;;;;;23.92;13.55;;;;;;;-140.05;100.00;61859.38;5049746;28;20196;-61
2021/12/16 02:55:21;;;;;;;28.85;14.77;;;;;;;-140.05;100.00;61859.38;5047941;28;20612;-63
2021/12/16 02:57:59;;;;;;;27.52;13.25;;;;;;;-140.05;100.00;61859.38;5021387;28;20213;-60
2021/12/16 03:00:35;;;;;;;27.38;13.65;;;;;;;-140.05;100.00;61859.38;5042552;28;20207;-64
2021/12/16 03:03:03;;;;;;;27.63;14.60;;;;;;;-140.05;100.00;61859.38;5048202;28;20196;-59
2021/12/16 03:05:30;;;;;;;29.58;15.13;;;;;;;-140.05;100.00;61859.38;5039541;28;20200;-61
2021/12/16 03:07:57;;;;;;;25.75;13.52;;;;;;;-140.05;100.00;61859.38;5039505;28;20204;-59
2021/12/16 03:13:20;;;;;;;25.60;13.40;;;;;;;-140.05;100.00;61859.38;5040095;28;20208;-58
2021/12/16 03:21:06;;;;;;;29.05;14.85;;;;;;;-140.05;100.00;61859.38;5048361;28;20287;-60
2021/12/16 03:33:08;;;;;;;25.75;13.55;;;;;;;-140.05;100.00;61859.38;5036032;28;20265;-58
2021/12/16 03:35:32;;;;;;;25.10;13.88;;;;;;;-140.05;100.00;61859.38;5040622;28;20827;-56
2021/12/16 03:38:07;;;;;;;24.55;13.60;;;;;;;-140.05;100.00;61859.38;5034533;28;20204;-55
2021/12/16 03:40:36;;;;;;;25.23;14.00;;;;;;;-140.05;100.00;61859.38;5021563;28;20295;-61
2021/12/16 03:43:11;;;;;;;27.77;14.77;;;;;;;-140.05;100.00;61859.38;5055166;28;20189;-62
2021/12/16 03:48:51;;;;;;;23.88;12.57;;;;;;;-140.05;100.00;61859.38;5036583;28;20575;-59
2021/12/16 03:51:44;;;;;;;25.70;14.10;;;;;;;-140.05;100.00;61859.38;5047586;28;20270;-59
2021/12/16 03:54:35;;;;;;;27.63;14.88;;;;;;;-140.05;100.00;61859.38;5035233;28;20210;-58
2021/12/16 03:57:09;;;;;;;24.45;14.18;;;;;;;-140.05;100.00;61859.38;5043875;28;20663;-59
2021/12/16 03:59:39;;;;;;;21.42;12.20;;;;;;;-140.05;100.00;61859.38;5054796;28;20219;-57
2021/12/16 04:02:32;;;;;;;25.38;12.88;;;;;;;-140.05;100.00;61859.38;5068155;28;20205;-56
2021/12/16 04:05:01;;;;;;;24.70;13.65;;;;;;;-140.05;100.00;61859.38;5049616;28;20208;-65
2021/12/16 04:07:35;;;;;;;24.70;13.50;;;;;;;-140.05;100.00;61859.38;5037500;28;20208;-64
2021/12/16 04:10:34;;;;;;;22.27;13.18;;;;;;;-140.05;100.00;61859.38;5042772;28;20209;-57
2021/12/16 04:13:07;;;;;;;29.50;15.40;;;;;;;-140.05;100.00;61859.38;5053508;28;20204;-59
2021/12/16 04:15:35;;;;;;;24.85;11.85;;;;;;;-140.05;100.00;61859.38;5041298;28;20698;-59
2021/12/16 04:18:03;;;;;;;25.48;14.07;;;;;;;-140.05;100.00;61859.38;5043652;28;20196;-60
2021/12/16 04:20:31;;;;;;;24.98;14.68;;;;;;;-140.05;100.00;61859.38;5068173;28;20197;-59
2021/12/16 04:22:59;;;;;;;28.02;14.93;;;;;;;-140.05;100.00;61859.38;5038735;28;20586;-61
2021/12/16 04:25:34;;;;;;;25.25;14.35;;;;;;;-140.05;100.00;61859.38;5058866;28;20204;-57
2021/12/16 04:28:06;;;;;;;23.95;13.30;;;;;;;-140.05;100.00;61859.38;5038328;28;20220;-56
2021/12/16 04:30:33;;;;;;;25.08;14.55;;;;;;;-140.05;100.00;61859.38;5040571;28;20267;-63
2021/12/16 04:33:04;;;;;;;25.63;14.45;;;;;;;-140.05;100.00;61859.38;5054798;28;20204;-62
2021/12/16 04:35:35;;;;;;;24.08;13.95;;;;;;;-140.05;100.00;61859.38;5051920;28;20266;-58
2021/12/16 04:38:05;;;;;;;25.65;14.48;;;;;;;-140.05;100.00;61859.38;5062571;28;20204;-58
2021/12/16 04:40:35;;;;;;;28.00;15.27;;;;;;;-140.05;100.00;61859.38;5050885;28;20699;-59
2021/12/16 04:43:05;;;;;;;22.98;13.55;;;;;;;-140.05;100.00;61859.38;5050336;28;20200;-58
2021/12/16 04:45:58;;;;;;;25.40;13.70;;;;;;;-140.05;100.00;61859.38;5050590;28;20254;-61
2021/12/16 04:48:26;;;;;;;25.90;14.38;;;;;;;-140.05;100.00;61859.38;5050671;28;20283;-58
2021/12/16 04:50:54;;;;;;;24.45;14.00;;;;;;;-140.05;100.00;61859.38;5037035;28;20207;-58
2021/12/16 04:53:22;;;;;;;23.83;14.02;;;;;;;-140.05;100.00;61859.38;5054978;28;20236;-58
2021/12/16 04:55:53;;;;;;;25.05;13.75;;;;;;;-140.05;100.00;61859.38;5037924;28;21078;-59
2021/12/16 04:58:22;;;;;;;24.77;13.80;;;;;;;-140.05;100.00;61859.38;5035320;28;20206;-57
2021/12/16 05:00:50;;;;;;;23.58;12.45;;;;;;;-140.05;100.00;61859.38;5061446;28;20327;-59
2021/12/16 05:03:41;;;;;;;22.30;13.00;;;;;;;-140.05;100.00;61859.38;5047637;28;20197;-61
2021/12/16 05:06:09;;;;;;;20.85;11.20;;;;;;;-140.05;100.00;61859.38;5051142;28;20234;-58
2021/12/16 05:08:37;;;;;;;21.35;11.75;;;;;;;-140.05;100.00;61859.38;5048489;28;20211;-59
2021/12/16 05:11:13;;;;;;;23.08;13.75;;;;;;;-140.05;100.00;61859.38;5050214;28;20200;-59
2021/12/16 05:13:45;;;;;;;24.50;14.32;;;;;;;-140.05;100.00;61859.38;5048150;28;20205;-60
2021/12/16 05:16:14;;;;;;;23.45;12.63;;;;;;;-140.05;100.00;61859.38;5050177;28;20691;-56
2021/12/16 05:18:46;;;;;;;22.80;13.73;;;;;;;-140.05;100.00;61859.38;5066576;28;20231;-53
2021/12/16 05:21:44;;;;;;;21.88;13.15;;;;;;;-140.05;100.00;61859.38;5050243;28;20287;-55
2021/12/16 05:24:25;;;;;;;22.52;12.27;;;;;;;-140.05;100.00;61859.38;5041829;28;20269;-60
2021/12/16 05:27:01;;;;;;;20.90;11.88;;;;;;;-140.05;100.00;61859.38;5046345;28;20646;-61
2021/12/16 05:29:28;;;;;;;21.00;12.63;;;;;;;-140.05;100.00;61859.38;5046499;28;20304;-60
2021/12/16 05:31:59;;;;;;;20.90;11.10;;;;;;;-140.05;100.00;61859.38;5034393;28;20204;-60
2021/12/16 05:34:26;;;;;;;20.48;11.73;;;;;;;-140.05;100.00;61859.38;5049498;28;20200;-59
2021/12/16 05:36:54;;;;;;;23.20;13.10;;;;;;;-140.05;100.00;61859.38;5049305;28;20220;-63
2021/12/16 05:39:23;;;;;;;78.47;47.97;;;;;;;-140.05;100.00;61859.38;5047919;28;20203;-57
2021/12/16 05:42:04;;;;;;;32.10;19.38;;;;;;;-140.05;100.00;61859.38;5048881;28;20284;-60
2021/12/16 05:44:33;;;;;;;19.85;12.10;;;;;;;-140.05;100.00;61859.38;5049473;28;20212;-62
2021/12/16 05:47:00;;;;;;;18.80;10.93;;;;;;;-140.05;100.00;61859.38;5049596;28;20212;-58
2021/12/16 05:49:27;;;;;;;19.55;11.80;;;;;;;-140.05;100.00;61859.38;5066167;28;20647;-55
2021/12/16 05:51:54;;;;;;;21.25;11.85;;;;;;;-140.05;100.00;61859.38;5049577;28;20203;-61
2021/12/16 05:54:22;;;;;;;20.80;11.07;;;;;;;-140.05;100.00;61859.38;5048793;28;20650;-55
2021/12/16 05:56:55;;;;;;;20.58;10.45;;;;;;;-140.05;100.00;61859.38;5049420;28;20909;-58
2021/12/16 05:59:23;;;;;;;18.08;10.80;;;;;;;-140.05;100.00;61859.38;5065533;28;20200;-57
2021/12/16 06:01:51;;;;;;;20.67;11.05;;;;;;;-140.05;100.00;61859.38;5066111;28;20285;-57
2021/12/16 06:04:25;;;;;;;19.70;11.15;;;;;;;-140.05;100.00;61859.38;5065653;28;20204;-58
2021/12/16 06:06:56;;;;;;;22.02;13.38;;;;;;;-140.05;100.00;61859.38;5049564;28;20611;-60
2021/12/16 06:09:23;;;;;;;57.53;34.13;;;;;;;-140.05;100.00;61859.38;5048541;28;20196;-61
2021/12/16 06:11:52;;;;;;;21.77;14.27;;;;;;;-140.05;100.00;61859.38;5050541;28;20197;-57
2021/12/16 06:28:02;;;;;;;17.85;10.35;;;;;;;-140.05;100.00;61859.38;5050103;28;20199;-59
2021/12/16 06:30:33;;;;;;;15.55;9.40;;;;;;;-140.05;100.00;61859.38;5049203;28;20203;-57
2021/12/16 06:33:02;;;;;;;15.50;9.05;;;;;;;-140.05;100.00;61859.38;5047794;28;20232;-60
2021/12/16 06:35:29;;;;;;;16.83;8.82;;;;;;;-140.05;100.00;61859.38;5047709;28;20929;-62
2021/12/16 06:37:57;;;;;;;13.57;7.80;;;;;;;-140.05;100.00;61859.38;5045502;28;20278;-61
2021/12/16 06:40:32;;;;;;;15.30;9.43;;;;;;;-140.05;100.00;61859.38;5046668;28;20203;-59
2021/12/16 06:43:10;;;;;;;17.05;10.20;;;;;;;-140.05;100.00;61859.38;5047841;28;20196;-58
2021/12/16 06:45:41;;;;;;;15.23;9.75;;;;;;;-140.05;100.00;61859.38;5048095;28;20721;-60
2021/12/16 06:48:31;;;;;;;13.93;8.45;;;;;;;-140.05;100.00;61859.38;5049675;28;20205;-61
2021/12/16 06:51:04;;;;;;;16.92;9.35;;;;;;;-140.05;100.00;61859.38;5049818;28;20299;-58
2021/12/16 06:53:52;;;;;;;15.05;9.32;;;;;;;-140.05;100.00;61859.38;5049424;28;20208;-59
2021/12/16 06:56:32;;;;;;;25.83;9.98;;;;;;;-140.05;100.00;61859.38;5049569;28;20238;-62
2021/12/16 06:59:09;;;;;;;18.27;9.63;;;;;;;-140.05;100.00;61859.38;5049426;28;20584;-59
2021/12/16 07:04:13;;;;;;;19.60;10.63;;;;;;;-140.05;100.00;61859.38;5049620;28;20199;-58
2021/12/16 07:06:41;;;;;;;17.90;10.20;;;;;;;-140.05;100.00;61859.38;5049266;28;20211;-58
2021/12/16 07:09:17;;;;;;;14.90;9.82;;;;;;;-140.05;100.00;61859.38;5049353;28;20649;-56
2021/12/16 07:11:48;;;;;;;14.02;9.30;;;;;;;-140.05;100.00;61859.38;5049619;28;20204;-60
2021/12/16 07:14:17;;;;;;;15.30;9.02;;;;;;;-140.05;100.00;61859.38;5049288;28;20199;-59
2021/12/16 07:16:46;;;;;;;16.10;9.70;;;;;;;-140.05;100.00;61859.38;5049776;28;20244;-60
2021/12/16 07:19:13;;;;;;;15.57;9.38;;;;;;;-140.05;100.00;61859.38;5049019;28;20196;-60
2021/12/16 07:21:43;;;;;;;13.77;9.35;;;;;;;-140.05;100.00;61859.38;5048959;28;20203;-59
2021/12/16 07:24:13;;;;;;;13.85;8.85;;;;;;;-140.05;100.00;61859.38;5049292;28;20724;-59
2021/12/16 07:26:41;;;;;;;15.00;8.90;;;;;;;-140.05;100.00;61859.38;5049492;28;20236;-58
2021/12/16 07:29:08;;;;;;;14.55;9.55;;;;;;;-140.05;100.00;61859.38;5049088;28;20200;-60
2021/12/16 07:31:38;;;;;;;15.35;8.90;;;;;;;-140.05;100.00;61859.38;5049230;28;20200;-58
2021/12/16 07:34:08;;;;;;;11.35;7.40;;;;;;;-140.05;100.00;61859.38;5053238;28;20204;-60
2021/12/16 07:36:37;;;;;;;15.65;9.32;;;;;;;-140.05;100.00;61859.38;5053065;28;20223;-62
2021/12/16 07:39:07;;;;;;;19.75;9.00;;;;;;;-140.05;100.00;61859.38;5053272;28;20575;-62
2021/12/16 07:41:36;;;;;;;16.25;9.52;;;;;;;-140.05;100.00;61859.38;5053284;28;20200;-62
2021/12/16 07:44:12;;;;;;;11.73;8.48;;;;;;;-140.05;100.00;61859.38;5053955;28;20295;-62
2021/12/16 07:46:51;;;;;;;23.45;10.02;;;;;;;-140.05;100.00;61859.38;5051750;28;20584;-58
2021/12/16 07:49:22;;;;;;;13.90;8.57;;;;;;;-140.05;100.00;61859.38;5044978;28;20298;-59
2021/12/16 07:51:49;;;;;;;17.15;9.15;;;;;;;-140.05;100.00;61859.38;5053904;28;20210;-60
2021/12/16 07:54:17;;;;;;;15.05;9.25;;;;;;;-140.05;100.00;61859.38;5052849;28;20199;-58
2021/12/16 07:56:45;;;;;;;14.02;8.80;;;;;;;-140.05;100.00;61859.38;5052885;28;20239;-60
2021/12/16 07:59:12;;;;;;;14.90;8.20;;;;;;;-140.05;100.00;61859.38;5052961;28;20585;-55
2021/12/16 08:01:41;;;;;;;10.48;6.78;;;;;;;-140.05;100.00;61859.38;5052888;28;20185;-60
2021/12/16 08:04:17;;;;;;;14.02;7.80;;;;;;;-140.05;100.00;61859.38;5052506;28;20573;-61
2021/12/16 08:06:50;;;;;;;13.77;8.43;;;;;;;-140.05;100.00;61859.38;5053447;28;20303;-59
2021/12/16 08:09:19;;;;;;;12.73;7.32;;;;;;;-140.05;100.00;61859.38;5052411;28;20291;-58
2021/12/16 08:11:48;;;;;;;10.77;7.45;;;;;;;-140.05;100.00;61859.38;5053015;28;20208;-57
2021/12/16 08:14:16;;;;;;;10.15;6.50;;;;;;;-140.05;100.00;61859.38;5053243;28;20192;-54
2021/12/16 08:16:43;;;;;;;13.05;7.82;;;;;;;-140.05;100.00;61859.38;5056688;28;20622;-60
2021/12/16 08:19:11;;;;;;;12.77;8.18;;;;;;;-140.05;100.00;61859.38;5055515;28;20196;-59
2021/12/16 08:21:39;;;;;;;11.23;7.22;;;;;;;-140.05;100.00;61859.38;5052663;28;20578;-62
2021/12/16 08:24:09;;;;;;;13.00;7.18;;;;;;;-140.05;100.00;61859.38;5052709;28;20195;-60
2021/12/16 08:26:37;;;;;;;11.68;7.03;;;;;;;-140.05;100.00;61859.38;5052719;28;20295;-61
2021/12/16 08:29:04;;;;;;;13.00;6.15;;;;;;;-140.05;100.00;61859.38;5052380;28;20203;-55
2021/12/16 08:31:33;;;;;;;15.35;8.02;;;;;;;-140.05;100.00;61859.38;5052430;28;20204;-58
2021/12/16 08:34:00;;;;;;;13.63;7.68;;;;;;;-140.05;100.00;61859.38;5051510;28;20184;-58
2021/12/16 08:36:27;;;;;;;13.15;8.15;;;;;;;-140.05;100.00;61859.38;5052246;28;20196;-60
2021/12/16 08:38:55;;;;;;;12.55;7.43;;;;;;;-140.05;100.00;61859.38;5051578;28;20239;-59
2021/12/16 08:41:26;;;;;;;11.63;6.38;;;;;;;-140.05;100.00;61859.38;5052325;28;20184;-55
2021/12/16 08:43:54;;;;;;;10.25;6.82;;;;;;;-140.05;100.00;61859.38;5051315;28;20197;-61
2021/12/16 08:46:25;;;;;;;11.70;7.80;;;;;;;-140.05;100.00;61859.38;5052145;28;20683;-56
2021/12/16 08:48:52;;;;;;;12.73;7.72;;;;;;;-140.05;100.00;61859.38;5051498;28;20184;-59
2021/12/16 08:51:26;;;;;;;13.02;8.20;;;;;;;-140.05;100.00;61859.38;5051919;28;20271;-59
2021/12/16 08:53:54;;;;;;;8.32;5.35;;;;;;;-140.05;100.00;61859.38;5051630;28;20199;-61
2021/12/16 08:56:22;;;;;;;8.95;5.78;;;;;;;-140.05;100.00;61859.38;5051638;28;20231;-62
2021/12/16 08:58:49;;;;;;;13.13;8.40;;;;;;;-140.05;100.00;61859.38;5051786;28;20224;-58
2021/12/16 09:01:20;;;;;;;14.38;7.65;;;;;;;-140.05;100.00;61859.38;5051543;28;20199;-53
2021/12/16 09:03:48;;;;;;;10.70;6.40;;;;;;;-140.05;100.00;61859.38;5051704;28;20680;-58
2021/12/16 09:06:16;;;;;;;11.20;6.93;;;;;;;-140.05;100.00;61859.38;5051941;28;20185;-60
2021/12/16 09:08:43;;;;;;;15.23;8.00;;;;;;;-140.05;100.00;61859.38;5051511;28;20599;-58
2021/12/16 09:11:18;;;;;;;12.55;8.27;;;;;;;-140.05;100.00;61859.38;5051325;28;20223;-60
2021/12/16 09:13:47;;;;;;;14.60;8.10;;;;;;;-140.05;100.00;61859.38;5051732;28;20223;-60
2021/12/16 09:16:17;;;;;;;15.20;8.13;;;;;;;-140.05;100.00;61859.38;5051356;28;20199;-60
2021/12/16 09:18:45;;;;;;;13.68;8.02;;;;;;;-140.05;100.00;61859.38;5051156;28;20224;-59
2021/12/16 09:21:21;;;;;;;16.33;8.07;;;;;;;-140.05;100.00;61859.38;5051617;28;20177;-59
2021/12/16 09:23:50;;;;;;;13.15;8.05;;;;;;;-140.05;100.00;61859.38;5051219;28;20203;-60
2021/12/16 09:26:19;;;;;;;13.00;7.65;;;;;;;-140.05;100.00;61859.38;5051750;28;20193;-62
2021/12/16 09:28:47;;;;;;;9.25;5.97;;;;;;;-140.05;100.00;61859.38;5051108;28;20203;-58
2021/12/16 09:31:18;;;;;;;10.43;6.72;;;;;;;-140.05;100.00;61859.38;5050960;28;20287;-58
2021/12/16 09:33:50;;;;;;;11.93;5.72;;;;;;;-140.05;100.00;61859.38;5050936;28;20192;-63
2021/12/16 09:36:24;;;;;;;11.45;6.20;;;;;;;-140.05;100.00;61859.38;5051346;28;20275;-59
2021/12/16 09:38:53;;;;;;;8.27;5.78;;;;;;;-140.05;100.00;61859.38;5050596;28;20219;-63
2021/12/16 09:41:20;;;;;;;11.20;5.78;;;;;;;-140.05;100.00;61859.38;5051032;28;20203;-66
2021/12/16 09:43:51;;;;;;;10.43;6.30;;;;;;;-140.05;100.00;61859.38;5051169;28;20266;-59
2021/12/16 09:46:21;;;;;;;9.68;6.25;;;;;;;-140.05;100.00;61859.38;5050793;28;20204;-63
2021/12/16 09:48:48;;;;;;;12.13;8.20;;;;;;;-140.05;100.00;61859.38;5050708;28;20246;-61
2021/12/16 09:51:22;;;;;;;8.27;5.25;;;;;;;-140.05;100.00;61859.38;5050619;28;20888;-60
2021/12/16 09:53:54;;;;;;;7.80;5.28;;;;;;;-140.05;100.00;61859.38;5050686;28;20200;-60
2021/12/16 09:56:24;;;;;;;11.10;5.70;;;;;;;-140.05;100.00;61859.38;5049799;28;20383;-60
2021/12/16 09:58:52;;;;;;;11.20;5.95;;;;;;;-140.05;100.00;61859.38;5050163;28;20284;-63
2021/12/16 10:01:21;;;;;;;7.70;5.10;;;;;;;-140.05;100.00;61859.38;5049952;28;20299;-64
2021/12/16 10:03:50;;;;;;;7.78;5.45;;;;;;;-140.05;100.00;61859.38;5050480;28;20180;-60
2021/12/16 10:06:19;;;;;;;9.43;5.28;;;;;;;-140.05;100.00;61859.38;5050061;28;20239;-60
2021/12/16 10:08:47;;;;;;;10.20;5.72;;;;;;;-140.05;100.00;61859.38;5050537;28;20560;-62
2021/12/16 10:11:16;;;;;;;9.18;6.05;;;;;;;-140.05;100.00;61859.38;5050451;28;20196;-61
2021/12/16 10:13:58;;;;;;;8.88;6.00;;;;;;;-140.05;100.00;61859.38;5050670;28;20613;-59
2021/12/16 10:19:14;;;;;;;8.13;5.00;;;;;;;-140.05;100.00;61859.38;5050136;28;20605;-62
2021/12/16 10:21:43;;;;;;;9.95;6.28;;;;;;;-140.05;100.00;61859.38;5050362;28;20188;-56
2021/12/16 10:24:31;;;;;;;8.85;6.38;;;;;;;-140.05;100.00;61859.38;5050106;28;20679;-65
2021/12/16 10:27:10;;;;;;;10.50;6.47;;;;;;;-140.05;100.00;61859.38;5050066;28;20307;-55
2021/12/16 10:29:40;;;;;;;14.73;8.65;;;;;;;-140.05;100.00;61859.38;5049950;28;20204;-60
2021/12/16 10:32:35;;;;;;;12.05;7.32;;;;;;;-140.05;100.00;61859.38;5049120;28;20280;-58
2021/12/16 10:35:19;;;;;;;12.13;6.80;;;;;;;-140.05;100.00;61859.38;5050159;28;20212;-61
2021/12/16 10:37:54;;;;;;;8.98;5.80;;;;;;;-140.05;100.00;61859.38;5049796;28;20252;-56
2021/12/16 10:40:28;;;;;;;11.57;5.68;;;;;;;-140.05;100.00;61859.38;5049780;28;20195;-61
2021/12/16 10:42:57;;;;;;;9.88;6.32;;;;;;;-140.05;100.00;61859.38;5049332;28;20203;-62
2021/12/16 10:45:31;;;;;;;9.05;6.45;;;;;;;-140.05;100.00;61859.38;5049485;28;20203;-60
2021/12/16 10:48:22;;;;;;;9.85;6.20;;;;;;;-140.05;100.00;61859.38;5049300;28;20200;-60
2021/12/16 10:51:01;;;;;;;9.50;6.57;;;;;;;-140.05;100.00;61859.38;5049837;28;20200;-59
2021/12/16 10:54:01;;;;;;;11.15;7.65;;;;;;;-140.05;100.00;61859.38;5049182;28;20200;-62
2021/12/16 10:56:33;;;;;;;10.43;7.47;;;;;;;-140.05;100.00;61859.38;5049563;28;20330;-58
2021/12/16 10:59:12;;;;;;;15.70;7.78;;;;;;;-140.05;100.00;61859.38;5048647;28;20725;-57
2021/12/16 11:01:47;;;;;;;12.25;7.80;;;;;;;-140.05;100.00;61859.38;5049782;28;20294;-62
2021/12/16 11:04:36;;;;;;;11.60;6.13;;;;;;;-140.05;100.00;61859.38;5048978;28;20200;-57
2021/12/16 11:07:18;;;;;;;9.82;6.25;;;;;;;-140.05;100.00;61859.38;5048521;28;20193;-55
2021/12/16 11:10:06;;;;;;;8.27;5.95;;;;;;;-140.05;100.00;61859.38;5049565;28;20208;-62
2021/12/16 11:12:40;;;;;;;9.18;6.22;;;;;;;-140.05;100.00;61859.38;5049047;28;20202;-63
2021/12/16 11:15:21;;;;;;;14.48;8.65;;;;;;;-140.05;100.00;61859.38;5049698;28;20199;-59
2021/12/16 11:18:06;;;;;;;31.88;14.63;;;;;;;-140.05;100.00;61859.38;5049236;28;20242;-57
2021/12/16 11:20:36;;;;;;;52.75;22.13;;;;;;;-140.05;100.00;61859.38;5049155;28;20242;-58
2021/12/16 11:23:05;;;;;;;74.97;31.42;;;;;;;-140.05;100.00;61859.38;5048995;28;20200;-57
2021/12/16 11:25:37;;;;;;;20.73;9.82;;;;;;;-140.05;100.00;61859.38;5049651;28;20193;-61
2021/12/16 11:28:44;;;;;;;12.00;8.18;;;;;;;-140.05;100.00;61859.38;5049011;28;20228;-62
2021/12/16 11:31:17;;;;;;;20.05;9.70;;;;;;;-140.05;100.00;61859.38;5047082;28;20207;-58
2021/12/16 11:33:52;;;;;;;28.15;14.50;;;;;;;-140.05;100.00;61859.38;5046858;28;20200;-64
2021/12/16 11:36:22;;;;;;;18.33;9.50;;;;;;;-140.05;100.00;61859.38;5048769;28;20212;-59
2021/12/16 11:39:13;;;;;;;43.60;16.13;;;;;;;-140.05;100.00;61859.38;5049251;28;20250;-62
2021/12/16 11:41:50;;;;;;;53.22;18.38;;;;;;;-140.05;100.00;61859.38;5048942;28;20235;-62
2021/12/16 11:44:19;;;;;;;173.57;39.67;;;;;;;-140.05;100.00;61859.38;5049272;28;20187;-61
2021/12/16 11:46:59;;;;;;;229.88;55.80;;;;;;;-140.05;100.00;61859.38;5049529;28;20563;-60
2021/12/16 11:49:42;;;;;;;47.70;15.60;;;;;;;-140.05;100.00;61859.38;5048834;28;20208;-60
2021/12/16 11:52:20;;;;;;;68.53;19.05;;;;;;;-140.05;100.00;61859.38;5048676;28;20230;-57
2021/12/16 11:54:53;;;;;;;50.00;16.50;;;;;;;-140.05;100.00;61859.38;5048920;28;20206;-61
2021/12/16 11:57:52;;;;;;;80.50;22.13;;;;;;;-140.05;100.00;61859.38;5048502;28;20319;-62
2021/12/16 12:00:29;;;;;;;15.00;8.05;;;;;;;-140.05;100.00;61859.38;5048448;28;20311;-62
2021/12/16 12:03:07;;;;;;;90.65;22.83;;;;;;;-140.05;100.00;61859.38;5048490;28;20200;-60
2021/12/16 12:05:50;;;;;;;44.78;14.50;;;;;;;-140.05;100.00;61859.38;5049314;28;20222;-60
2021/12/16 12:08:27;;;;;;;258.15;56.40;;;;;;;-140.05;100.00;61859.38;5049148;28;20196;-59
2021/12/16 12:11:16;;;;;;;102.60;27.63;;;;;;;-140.05;100.00;61859.38;5049998;28;20287;-57
2021/12/16 12:13:57;;;;;;;145.30;35.63;;;;;;;-140.05;100.00;61859.38;5049711;28;20240;-56
2021/12/16 12:16:34;;;;;;;194.40;44.00;;;;;;;-140.05;100.00;61859.38;5052360;28;20208;-59
2021/12/16 12:19:24;;;;;;;139.25;34.28;;;;;;;-140.05;100.00;61859.38;5052494;28;20307;-60
2021/12/16 12:22:00;;;;;;;68.03;22.55;;;;;;;-140.05;100.00;61859.38;5052933;28;20977;-63
2021/12/16 12:24:34;;;;;;;45.88;17.02;;;;;;;-140.05;100.00;61859.38;5052312;28;20290;-62
2021/12/16 12:27:09;;;;;;;109.20;32.72;;;;;;;-140.05;100.00;61859.38;5052183;28;20184;-61
2021/12/16 12:29:38;;;;;;;79.85;29.55;;;;;;;-140.05;100.00;61859.38;5052796;28;20212;-60
2021/12/16 12:32:21;;;;;;;57.15;23.98;;;;;;;-140.05;100.00;61859.38;5051788;28;20199;-61
2021/12/16 12:34:59;;;;;;;49.92;23.10;;;;;;;-140.05;100.00;61859.38;5052667;28;20202;-57
2021/12/16 12:37:28;;;;;;;70.05;28.05;;;;;;;-140.05;100.00;61859.38;5052176;28;20192;-58
2021/12/16 12:40:18;;;;;;;29.15;14.63;;;;;;;-140.05;100.00;61859.38;5052016;28;20934;-59
2021/12/16 12:42:47;;;;;;;89.90;34.92;;;;;;;-140.05;100.00;61859.38;5051786;28;20671;-60
2021/12/16 12:45:19;;;;;;;83.15;34.35;;;;;;;-140.05;100.00;61859.38;5052458;28;20205;-62
2021/12/16 12:47:50;;;;;;;73.75;31.83;;;;;;;-140.05;100.00;61859.38;5051658;28;20710;-60
2021/12/16 12:50:22;;;;;;;46.15;23.08;;;;;;;-140.05;100.00;61859.38;5052352;28;20268;-60
2021/12/16 12:52:52;;;;;;;34.28;15.50;;;;;;;-140.05;100.00;61859.38;5051965;28;20204;-60
2021/12/16 12:55:26;;;;;;;19.88;12.88;;;;;;;-140.05;100.00;61859.38;5051859;28;20228;-60
2021/12/16 12:58:03;;;;;;;27.10;15.77;;;;;;;-140.05;100.00;61859.38;5051570;28;20288;-60
2021/12/16 13:00:37;;;;;;;31.42;16.30;;;;;;;-140.05;100.00;61859.38;5051766;28;20216;-58
2021/12/16 13:03:17;;;;;;;52.33;24.80;;;;;;;-140.05;100.00;61859.38;5051583;28;20224;-59
2021/12/16 13:06:12;;;;;;;22.33;13.10;;;;;;;-140.05;100.00;61859.38;5051818;28;20200;-60
2021/12/16 13:08:44;;;;;;;25.42;15.25;;;;;;;-140.05;100.00;61859.38;5050443;28;20224;-62
2021/12/16 13:11:18;;;;;;;25.05;14.20;;;;;;;-140.05;100.00;61859.38;5051632;28;20196;-59
2021/12/16 13:14:06;;;;;;;23.42;15.27;;;;;;;-140.05;100.00;61859.38;5051340;28;20200;-59
2021/12/16 13:28:32;;;;;;;15.73;9.60;;;;;;;-140.05;100.00;61859.38;5051076;28;20290;-60
2021/12/16 13:31:05;;;;;;;16.77;10.35;;;;;;;-140.05;100.00;61859.38;5050466;28;20209;-61
2021/12/16 13:33:52;;;;;;;16.92;10.15;;;;;;;-140.05;100.00;61859.38;5050888;28;20207;-59
2021/12/16 13:36:39;;;;;;;16.17;11.15;;;;;;;-140.05;100.00;61859.38;5051372;28;20282;-58
2021/12/16 13:39:20;;;;;;;17.25;10.85;;;;;;;-140.05;100.00;61859.38;5050847;28;20869;-58
2021/12/16 13:42:07;;;;;;;18.33;10.88;;;;;;;-140.05;100.00;61859.38;5051342;28;20204;-62
2021/12/16 13:44:40;;;;;;;18.08;10.98;;;;;;;-140.05;100.00;61859.38;5051189;28;20652;-57
2021/12/16 14:07:29;;;;;;;19.63;11.73;;;;;;;-140.05;100.00;61859.38;5049759;28;20185;-65
2021/12/16 14:10:03;;;;;;;21.27;13.02;;;;;;;-140.05;100.00;61859.38;5050575;28;20204;-62
2021/12/16 14:15:24;;;;;;;21.85;12.65;;;;;;;-140.05;100.00;61859.38;5050326;28;20200;-61
2021/12/16 14:23:22;;;;;;;19.40;12.55;;;;;;;-140.05;100.00;61859.38;5049730;28;20208;-62
2021/12/16 14:43:01;;;;;;;21.40;12.77;;;;;;;-140.05;100.00;61859.38;5049325;28;20188;-58
2021/12/16 14:50:44;;;;;;;18.40;11.15;;;;;;;-140.05;100.00;61859.38;5049544;28;20214;-60
2021/12/16 14:53:28;;;;;;;18.33;11.13;;;;;;;-140.05;100.00;61859.38;5049972;28;20482;-62
2021/12/16 14:56:00;;;;;;;22.58;12.18;;;;;;;-140.05;100.00;61859.38;5049647;28;20220;-64
2021/12/16 14:58:27;;;;;;;21.42;12.88;;;;;;;-140.05;100.00;61859.38;5049024;28;20188;-64
2021/12/16 15:01:12;;;;;;;22.85;13.00;;;;;;;-140.05;100.00;61859.38;5049830;28;20258;-62
2021/12/16 15:03:42;;;;;;;18.88;11.70;;;;;;;-140.05;100.00;61859.38;5049345;28;20204;-60
2021/12/16 15:06:19;;;;;;;20.50;12.02;;;;;;;-140.05;100.00;61859.38;5049498;28;20192;-56
2021/12/16 15:11:52;;;;;;;17.33;10.68;;;;;;;-140.05;100.00;61859.38;5050014;28;20205;-63
2021/12/16 15:15:18;;;;;;;21.83;11.93;;;;;;;-140.05;100.00;61859.38;5049026;28;20219;-60
2021/12/16 15:31:38;;;;;;;20.85;11.63;;;;;;;-140.05;100.00;61859.38;5044937;28;20262;-60